createdAt,value
2022-12-05T00:00:54.964Z,101336.34
2022-12-05T00:03:21.526Z,101334.88
2022-12-05T00:05:47.848Z,101334.88
2022-12-05T00:08:14.271Z,101342.84
2022-12-05T00:10:40.624Z,101338.38
2022-12-05T00:13:07.007Z,101339.75
2022-12-05T00:15:36.433Z,101334.00
2022-12-05T00:18:02.756Z,101336.13
2022-12-05T00:20:29.086Z,101336.13
2022-12-05T00:22:55.414Z,101333.38
2022-12-05T00:25:21.749Z,101331.13
2022-12-05T00:27:48.080Z,101336.13
2022-12-05T00:30:14.392Z,101333.38
2022-12-05T00:32:40.709Z,101330.47
2022-12-05T00:35:07.045Z,101329.09
2022-12-05T00:37:33.351Z,101333.56
2022-12-05T00:39:59.934Z,101333.78
2022-12-05T00:42:26.410Z,101337.53
2022-12-05T00:44:52.744Z,101336.75
2022-12-05T00:47:19.078Z,101332.50
2022-12-05T00:49:45.411Z,101338.28
2022-12-05T00:52:11.761Z,101320.97
2022-12-05T00:54:38.739Z,101336.91
2022-12-05T00:57:05.105Z,101331.13
2022-12-05T00:59:31.436Z,101318.09
2022-12-05T01:01:57.812Z,101312.34
2022-12-05T01:04:24.678Z,101316.72
2022-12-05T01:06:51.049Z,101318.72
2022-12-05T01:09:17.929Z,101315.09
2022-12-05T01:11:44.243Z,101310.72
2022-12-05T01:14:11.124Z,101316.50
2022-12-05T01:16:37.706Z,101307.94
2022-12-05T01:19:05.225Z,101313.50
2022-12-05T01:21:31.547Z,101312.00
2022-12-05T01:23:57.861Z,101303.47
2022-12-05T01:26:24.186Z,101310.63
2022-12-05T01:28:50.740Z,101300.47
2022-12-05T01:31:27.387Z,101304.66
2022-12-05T01:33:54.153Z,101303.19
2022-12-05T01:36:20.618Z,101296.03
2022-12-05T01:38:46.936Z,101297.50
2022-12-05T01:41:14.324Z,101293.88
2022-12-05T01:43:53.296Z,101288.97
2022-12-05T01:46:19.671Z,101297.69
2022-12-05T01:48:46.039Z,101294.31
2022-12-05T01:51:12.365Z,101293.69
2022-12-05T01:53:38.700Z,101287.91
2022-12-05T01:56:05.016Z,101291.53
2022-12-05T01:58:32.221Z,101290.66
2022-12-05T02:00:58.582Z,101293.69
2022-12-05T02:03:24.938Z,101297.19
2022-12-05T02:05:51.579Z,101292.19
2022-12-05T02:08:17.990Z,101296.44
2022-12-05T02:10:45.570Z,101299.94
2022-12-05T02:13:30.872Z,101294.09
2022-12-05T02:15:57.285Z,101296.22
2022-12-05T02:18:29.702Z,101291.94
2022-12-05T02:21:01.909Z,101292.03
2022-12-05T02:23:41.537Z,101296.97
2022-12-05T02:26:16.673Z,101302.00
2022-12-05T02:28:51.893Z,101302.09
2022-12-05T02:31:27.994Z,101308.72
2022-12-05T02:34:05.655Z,101302.97
2022-12-05T02:36:44.778Z,101302.41
2022-12-05T02:39:18.222Z,101302.41
2022-12-05T02:41:55.638Z,101301.03
2022-12-05T02:44:23.340Z,101292.38
2022-12-05T02:46:49.653Z,101302.41
2022-12-05T02:49:17.677Z,101306.78
2022-12-05T02:51:49.057Z,101293.56
2022-12-05T02:54:19.007Z,101295.16
2022-12-05T02:56:45.352Z,101287.91
2022-12-05T02:59:11.673Z,101290.88
2022-12-05T03:01:38.161Z,101290.03
2022-12-05T03:04:04.666Z,101281.91
2022-12-05T03:06:32.340Z,101278.94
2022-12-05T03:09:02.633Z,101282.47
2022-12-05T03:11:28.964Z,101279.47
2022-12-05T03:13:55.651Z,101278.72
2022-12-05T03:16:26.607Z,101270.19
2022-12-05T03:19:00.223Z,101271.56
2022-12-05T03:21:29.517Z,101274.44
2022-12-05T03:23:56.509Z,101275.97
2022-12-05T03:26:30.217Z,101270.19
2022-12-05T03:29:11.139Z,101269.63
2022-12-05T03:31:42.271Z,101280.41
2022-12-05T03:34:09.162Z,101286.41
2022-12-05T03:36:38.061Z,101285.22
2022-12-05T03:39:10.274Z,101288.09
2022-12-05T03:41:48.991Z,101281.78
2022-12-05T03:44:18.216Z,101279.56
2022-12-05T03:46:46.642Z,101280.28
2022-12-05T03:49:22.055Z,101278.19
2022-12-05T03:51:54.064Z,101277.50
2022-12-05T03:54:40.562Z,101266.75
2022-12-05T03:57:23.153Z,101263.94
2022-12-05T03:59:56.761Z,101272.69
2022-12-05T04:02:30.841Z,101269.06
2022-12-05T04:05:07.407Z,101267.69
2022-12-05T04:07:34.256Z,101274.19
2022-12-05T04:10:01.871Z,101268.44
2022-12-05T04:12:28.600Z,101273.44
2022-12-05T04:14:59.240Z,101271.22
2022-12-05T04:17:46.041Z,101270.38
2022-12-05T04:20:40.305Z,101265.44
2022-12-05T04:23:06.761Z,101269.06
2022-12-05T04:25:36.359Z,101271.22
2022-12-05T04:28:08.581Z,101275.47
2022-12-05T04:30:43.263Z,101266.91
2022-12-05T04:33:21.381Z,101265.44
2022-12-05T04:35:54.546Z,101265.44
2022-12-05T04:38:23.301Z,101263.94
2022-12-05T04:40:52.207Z,101274.72
2022-12-05T04:43:18.632Z,101276.13
2022-12-05T04:45:44.951Z,101262.47
2022-12-05T04:48:12.220Z,101270.47
2022-12-05T04:50:38.552Z,101272.69
2022-12-05T04:53:04.942Z,101279.97
2022-12-05T04:55:31.483Z,101268.44
2022-12-05T04:58:00.467Z,101270.66
2022-12-05T05:00:27.701Z,101269.38
2022-12-05T05:03:12.987Z,101269.38
2022-12-05T05:05:39.367Z,101280.16
2022-12-05T05:08:05.781Z,101265.81
2022-12-05T05:10:39.640Z,101267.22
2022-12-05T05:13:05.952Z,101271.59
2022-12-05T05:15:32.266Z,101265.09
2022-12-05T05:17:58.617Z,101272.97
2022-12-05T05:20:24.970Z,101268.63
2022-12-05T05:22:51.547Z,101272.88
2022-12-05T05:25:18.162Z,101280.16
2022-12-05T05:27:47.404Z,101275.03
2022-12-05T05:30:13.725Z,101281.53
2022-12-05T05:32:40.037Z,101274.41
2022-12-05T05:35:06.522Z,101274.41
2022-12-05T05:37:33.088Z,101277.91
2022-12-05T05:39:59.725Z,101277.19
2022-12-05T05:42:26.389Z,101268.53
2022-12-05T05:44:52.708Z,101271.41
2022-12-05T05:47:19.020Z,101271.41
2022-12-05T05:49:45.329Z,101269.91
2022-12-05T05:52:11.666Z,101277.28
2022-12-05T05:54:37.992Z,101275.88
2022-12-05T05:57:04.333Z,101279.38
2022-12-05T05:59:30.654Z,101278.56
2022-12-05T06:01:56.989Z,101282.84
2022-12-05T06:04:23.391Z,101285.91
2022-12-05T06:06:49.732Z,101284.03
2022-12-05T06:09:16.053Z,101280.63
2022-12-05T06:11:42.385Z,101289.38
2022-12-05T06:14:08.688Z,101293.56
2022-12-05T06:16:35.065Z,101286.88
2022-12-05T06:19:01.414Z,101289.66
2022-12-05T06:21:27.826Z,101292.00
2022-12-05T06:23:54.209Z,101302.13
2022-12-05T06:26:20.691Z,101299.03
2022-12-05T06:28:47.019Z,101295.31
2022-12-05T06:31:17.150Z,101292.13
2022-12-05T06:33:43.585Z,101294.94
2022-12-05T06:36:10.686Z,101302.16
2022-12-05T06:38:41.853Z,101296.50
2022-12-05T06:41:09.794Z,101296.78
2022-12-05T06:43:36.149Z,101307.91
2022-12-05T06:46:06.090Z,101308.47
2022-12-05T06:48:32.480Z,101303.16
2022-12-05T06:50:58.796Z,101313.41
2022-12-05T06:54:08.724Z,101318.53
2022-12-05T06:56:35.081Z,101322.81
2022-12-05T06:59:01.412Z,101319.38
2022-12-05T07:01:40.969Z,101324.47
2022-12-05T07:04:08.596Z,101320.94
2022-12-05T07:06:35.111Z,101321.41
2022-12-05T07:09:01.423Z,101320.00
2022-12-05T07:11:27.853Z,101313.69
2022-12-05T07:13:54.225Z,101320.41
2022-12-05T07:16:20.656Z,101324.38
2022-12-05T07:18:47.050Z,101332.00
2022-12-05T07:21:14.512Z,101331.22
2022-12-05T07:23:41.714Z,101329.41
2022-12-05T07:26:08.536Z,101332.50
2022-12-05T07:28:34.880Z,101326.00
2022-12-05T07:31:01.902Z,101329.00
2022-12-05T07:33:28.422Z,101320.75
2022-12-05T07:35:58.875Z,101326.97
2022-12-05T07:38:25.209Z,101332.00
2022-12-05T07:40:51.547Z,101319.34
2022-12-05T07:43:17.859Z,101316.31
2022-12-05T07:45:44.256Z,101325.69
2022-12-05T07:48:13.350Z,101322.91
2022-12-05T07:50:43.333Z,101323.28
2022-12-05T07:53:09.790Z,101327.75
2022-12-05T07:55:37.367Z,101331.03
2022-12-05T07:58:03.704Z,101326.06
2022-12-05T08:00:30.021Z,101329.94
2022-12-05T08:02:56.479Z,101322.50
2022-12-05T08:05:22.859Z,101338.78
2022-12-05T08:07:49.263Z,101334.09
2022-12-05T08:10:15.600Z,101334.31
2022-12-05T08:12:41.938Z,101338.44
2022-12-05T08:15:08.640Z,101341.41
2022-12-05T08:17:34.969Z,101336.28
2022-12-05T08:20:02.270Z,101344.09
2022-12-05T08:22:28.603Z,101328.97
2022-12-05T08:24:56.500Z,101335.81
2022-12-05T08:27:22.918Z,101327.84
2022-12-05T08:29:49.244Z,101333.06
2022-12-05T08:32:15.870Z,101341.53
2022-12-05T08:34:42.365Z,101342.75
2022-12-05T08:37:08.716Z,101340.44
2022-12-05T08:39:38.615Z,101345.13
2022-12-05T08:42:05.306Z,101341.34
2022-12-05T08:44:31.612Z,101344.13
2022-12-05T08:46:57.941Z,101333.91
2022-12-05T08:49:24.261Z,101333.16
2022-12-05T08:51:50.584Z,101336.69
2022-12-05T08:54:16.930Z,101325.16
2022-12-05T08:56:43.258Z,101336.03
2022-12-05T08:59:09.737Z,101330.81
2022-12-05T09:01:38.457Z,101330.81
2022-12-05T09:04:05.502Z,101334.97
2022-12-05T09:06:31.844Z,101335.19
2022-12-05T09:09:02.610Z,101327.75
2022-12-05T09:11:29.939Z,101321.34
2022-12-05T09:13:57.602Z,101321.44
2022-12-05T09:16:24.730Z,101329.44
2022-12-05T09:18:51.247Z,101328.31
2022-12-05T09:21:18.285Z,101331.25
2022-12-05T09:23:44.608Z,101335.91
2022-12-05T09:26:11.836Z,101334.34
2022-12-05T09:28:38.162Z,101335.13
2022-12-05T09:31:08.443Z,101328.97
2022-12-05T09:33:35.830Z,101328.88
2022-12-05T09:36:02.808Z,101333.78
2022-12-05T09:38:29.147Z,101321.47
2022-12-05T09:41:07.753Z,101325.53
2022-12-05T09:43:37.057Z,101325.53
2022-12-05T09:46:04.888Z,101327.53
2022-12-05T09:48:31.252Z,101334.53
2022-12-05T09:51:00.324Z,101327.97
2022-12-05T09:53:33.139Z,101329.94
2022-12-05T09:56:02.210Z,101330.94
2022-12-05T09:58:30.159Z,101326.66
2022-12-05T10:01:01.047Z,101322.97
2022-12-05T10:03:38.090Z,101319.78
2022-12-05T10:06:15.756Z,101330.03
2022-12-05T10:09:00.966Z,101329.97
2022-12-05T10:11:34.997Z,101331.00
2022-12-05T10:14:17.994Z,101315.78
2022-12-05T10:16:48.420Z,101318.13
2022-12-05T10:19:16.039Z,101320.38
2022-12-05T10:21:50.825Z,101315.53
2022-12-05T10:24:18.552Z,101317.03
2022-12-05T10:26:45.856Z,101323.34
2022-12-05T10:29:13.060Z,101325.56
2022-12-05T10:31:39.583Z,101325.19
2022-12-05T10:34:17.467Z,101324.47
2022-12-05T10:37:03.976Z,101317.84
2022-12-05T10:39:30.296Z,101326.69
2022-12-05T10:41:56.730Z,101319.25
2022-12-05T10:44:23.049Z,101320.56
2022-12-05T10:46:49.410Z,101324.84
2022-12-05T10:49:15.786Z,101320.00
2022-12-05T10:51:42.370Z,101322.63
2022-12-05T10:54:21.307Z,101312.19
2022-12-05T10:56:48.579Z,101326.13
2022-12-05T10:59:15.934Z,101321.47
2022-12-05T11:01:44.495Z,101321.47
2022-12-05T11:04:20.973Z,101314.00
2022-12-05T11:06:50.927Z,101309.75
2022-12-05T11:09:18.134Z,101311.22
2022-12-05T11:11:45.853Z,101313.06
2022-12-05T11:14:22.252Z,101318.88
2022-12-05T11:16:52.282Z,101314.22
2022-12-05T11:19:21.338Z,101304.94
2022-12-05T11:21:47.925Z,101304.28
2022-12-05T11:24:33.574Z,101318.16
2022-12-05T11:27:00.684Z,101312.97
2022-12-05T11:29:30.075Z,101309.53
2022-12-05T11:31:56.413Z,101308.88
2022-12-05T11:34:46.041Z,101308.13
2022-12-05T11:37:13.328Z,101311.00
2022-12-05T11:39:39.654Z,101309.25
2022-12-05T11:42:27.462Z,101308.50
2022-12-05T11:44:59.995Z,101307.28
2022-12-05T11:47:45.308Z,101298.72
2022-12-05T11:50:11.549Z,101297.41
2022-12-05T11:52:47.974Z,101301.59
2022-12-05T11:55:17.190Z,101292.47
2022-12-05T11:57:52.253Z,101287.44
2022-12-05T12:00:22.277Z,101284.56
2022-12-05T12:03:07.234Z,101293.38
2022-12-05T12:05:38.440Z,101280.16
2022-12-05T12:08:17.574Z,101289.53
2022-12-05T12:11:05.227Z,101289.06
2022-12-05T12:13:31.493Z,101286.06
2022-12-05T12:16:12.359Z,101282.66
2022-12-05T12:18:52.983Z,101277.72
2022-12-05T12:21:36.973Z,101278.25
2022-12-05T12:24:23.587Z,101279.38
2022-12-05T12:27:08.513Z,101282.66
2022-12-05T12:29:47.004Z,101283.63
2022-12-05T12:32:16.520Z,101286.06
2022-12-05T12:34:57.071Z,101284.72
2022-12-05T12:37:35.945Z,101286.97
2022-12-05T12:40:16.305Z,101294.03
2022-12-05T12:42:56.743Z,101274.25
2022-12-05T12:45:41.081Z,101281.50
2022-12-05T12:48:19.325Z,101268.22
2022-12-05T12:50:45.654Z,101270.59
2022-12-05T12:53:25.865Z,101277.47
2022-12-05T12:56:10.625Z,101272.13
2022-12-05T12:58:45.283Z,101273.06
2022-12-05T13:01:32.517Z,101255.63
2022-12-05T13:04:02.846Z,101265.19
2022-12-05T13:06:30.562Z,101266.34
2022-12-05T13:08:58.291Z,101268.44
2022-12-05T13:11:29.097Z,101259.78
2022-12-05T13:13:56.729Z,101264.53
2022-12-05T13:16:27.101Z,101261.63
2022-12-05T13:18:54.460Z,101255.84
2022-12-05T13:21:20.769Z,101263.56
2022-12-05T13:23:48.232Z,101261.81
2022-12-05T13:26:14.540Z,101265.97
2022-12-05T13:28:47.738Z,101267.88
2022-12-05T13:31:16.970Z,101268.19
2022-12-05T13:33:44.139Z,101265.84
2022-12-05T13:36:39.222Z,101266.03
2022-12-05T13:39:25.115Z,101262.28
2022-12-05T13:42:11.151Z,101267.22
2022-12-05T13:44:56.841Z,101269.47
2022-12-05T13:47:28.333Z,101264.69
2022-12-05T13:50:01.371Z,101266.06
2022-12-05T13:52:29.071Z,101273.09
2022-12-05T13:55:01.397Z,101270.91
2022-12-05T13:57:40.153Z,101269.97
2022-12-05T14:00:10.025Z,101269.16
2022-12-05T14:02:42.345Z,101266.72
2022-12-05T14:05:14.596Z,101271.66
2022-12-05T14:07:44.633Z,101265.78
2022-12-05T14:10:12.067Z,101273.50
2022-12-05T14:12:54.558Z,101272.94
2022-12-05T14:15:24.613Z,101280.00
2022-12-05T14:17:51.822Z,101276.44
2022-12-05T14:20:26.096Z,101281.16
2022-12-05T14:23:11.433Z,101279.94
2022-12-05T14:25:53.140Z,101275.06
2022-12-05T14:28:38.489Z,101275.97
2022-12-05T14:31:11.260Z,101275.31
2022-12-05T14:33:37.609Z,101272.25
2022-12-05T14:36:04.956Z,101273.81
2022-12-05T14:38:31.547Z,101270.84
2022-12-05T14:41:06.139Z,101267.97
2022-12-05T14:43:33.136Z,101266.38
2022-12-05T14:46:00.273Z,101269.44
2022-12-05T14:48:27.945Z,101270.84
2022-12-05T14:50:55.020Z,101262.00
2022-12-05T14:53:21.478Z,101265.13
2022-12-05T14:55:48.406Z,101272.22
2022-12-05T14:58:18.366Z,101269.25
2022-12-05T15:00:48.057Z,101272.97
2022-12-05T15:03:19.189Z,101273.75
2022-12-05T15:05:45.493Z,101266.81
2022-12-05T15:08:12.829Z,101271.59
2022-12-05T15:10:39.189Z,101259.03
2022-12-05T15:13:17.571Z,101267.94
2022-12-05T15:15:44.861Z,101257.72
2022-12-05T15:18:20.183Z,101259.03
2022-12-05T15:20:49.602Z,101266.31
2022-12-05T15:23:34.551Z,101274.63
2022-12-05T15:26:17.657Z,101271.53
2022-12-05T15:29:04.332Z,101265.66
2022-12-05T15:31:31.445Z,101275.63
2022-12-05T15:33:59.054Z,101280.00
2022-12-05T15:36:26.523Z,101284.28
2022-12-05T15:38:53.938Z,101281.56
2022-12-05T15:41:20.277Z,101288.41
2022-12-05T15:43:56.116Z,101294.09
2022-12-05T15:46:27.449Z,101293.22
2022-12-05T15:48:54.631Z,101290.50
2022-12-05T15:51:30.428Z,101294.72
2022-12-05T15:53:59.105Z,101294.13
2022-12-05T15:56:29.845Z,101293.94
2022-12-05T15:59:03.169Z,101291.06
2022-12-05T16:01:29.903Z,101294.53
2022-12-05T16:03:59.479Z,101285.81
2022-12-05T16:06:30.288Z,101299.09
2022-12-05T16:08:56.996Z,101288.44
2022-12-05T16:11:23.312Z,101296.03
2022-12-05T16:13:50.136Z,101291.97
2022-12-05T16:16:20.128Z,101286.06
2022-12-05T16:18:50.108Z,101288.09
2022-12-05T16:21:31.912Z,101279.41
2022-12-05T16:24:01.755Z,101289.41
2022-12-05T16:26:28.094Z,101283.63
2022-12-05T16:29:01.339Z,101291.66
2022-12-05T16:31:28.104Z,101289.31
2022-12-05T16:34:04.523Z,101287.25
2022-12-05T16:36:30.841Z,101288.03
2022-12-05T16:39:06.649Z,101285.78
2022-12-05T16:41:36.526Z,101280.34
2022-12-05T16:44:09.417Z,101268.94
2022-12-05T16:46:41.859Z,101274.56
2022-12-05T16:49:15.615Z,101265.81
2022-12-05T16:51:42.342Z,101281.66
2022-12-05T16:54:08.701Z,101284.63
2022-12-05T16:56:35.026Z,101277.53
2022-12-05T16:59:04.559Z,101276.06
2022-12-05T17:01:35.579Z,101279.38
2022-12-05T17:04:04.996Z,101277.38
2022-12-05T17:06:31.377Z,101275.88
2022-12-05T17:08:57.716Z,101286.78
2022-12-05T17:11:24.993Z,101275.97
2022-12-05T17:13:51.449Z,101275.31
2022-12-05T17:16:18.243Z,101276.06
2022-12-05T17:18:44.879Z,101268.78
2022-12-05T17:21:14.262Z,101274.56
2022-12-05T17:23:46.007Z,101276.06
2022-12-05T17:26:14.277Z,101271.75
2022-12-05T17:28:40.659Z,101271.75
2022-12-05T17:31:07.085Z,101275.22
2022-12-05T17:33:33.457Z,101278.84
2022-12-05T17:35:59.999Z,101279.66
2022-12-05T17:38:26.345Z,101276.53
2022-12-05T17:40:52.650Z,101274.22
2022-12-05T17:43:24.688Z,101279.16
2022-12-05T17:45:51.505Z,101288.75
2022-12-05T17:48:17.847Z,101278.78
2022-12-05T17:50:45.099Z,101278.34
2022-12-05T17:53:39.851Z,101286.03
2022-12-05T17:56:06.173Z,101283.06
2022-12-05T17:58:32.854Z,101279.66
2022-12-05T18:00:59.243Z,101272.34
2022-12-05T18:03:25.641Z,101281.28
2022-12-05T18:05:51.978Z,101272.84
2022-12-05T18:08:18.351Z,101274.59
2022-12-05T18:10:44.947Z,101272.06
2022-12-05T18:13:11.267Z,101278.41
2022-12-05T18:15:42.517Z,101278.84
2022-12-05T18:18:11.581Z,101272.66
2022-12-05T18:20:37.906Z,101272.22
2022-12-05T18:23:04.440Z,101271.16
2022-12-05T18:25:31.946Z,101271.44
2022-12-05T18:27:58.510Z,101272.75
2022-12-05T18:30:24.830Z,101280.22
2022-12-05T18:32:51.161Z,101288.97
2022-12-05T18:35:17.482Z,101292.53
2022-12-05T18:37:44.021Z,101287.50
2022-12-05T18:40:10.601Z,101291.56
2022-12-05T18:42:36.946Z,101290.69
2022-12-05T18:45:03.289Z,101291.38
2022-12-05T18:47:29.684Z,101295.63
2022-12-05T18:49:55.992Z,101294.16
2022-12-05T18:52:22.428Z,101291.19
2022-12-05T18:55:03.057Z,101298.44
2022-12-05T18:57:36.282Z,101301.31
2022-12-05T19:00:03.783Z,101302.41
2022-12-05T19:02:30.359Z,101298.22
2022-12-05T19:04:57.022Z,101305.38
2022-12-05T19:07:23.605Z,101306.56
2022-12-05T19:09:49.932Z,101306.16
2022-12-05T19:12:16.265Z,101302.81
2022-12-05T19:14:42.586Z,101297.56
2022-12-05T19:17:08.950Z,101304.75
2022-12-05T19:19:35.304Z,101309.44
2022-12-05T19:22:02.088Z,101308.06
2022-12-05T19:24:28.831Z,101308.25
2022-12-05T19:26:55.183Z,101313.63
2022-12-05T19:29:21.692Z,101310.97
2022-12-05T19:31:48.079Z,101310.41
2022-12-05T19:34:14.478Z,101308.59
2022-12-05T19:36:44.179Z,101301.56
2022-12-05T19:39:11.299Z,101305.78
2022-12-05T19:41:37.708Z,101302.22
2022-12-05T19:44:04.235Z,101295.88
2022-12-05T19:46:30.718Z,101301.00
2022-12-05T19:48:57.513Z,101299.69
2022-12-05T19:51:23.847Z,101302.59
2022-12-05T19:53:50.188Z,101309.38
2022-12-05T19:56:17.277Z,101302.69
2022-12-05T19:58:43.847Z,101300.84
2022-12-05T20:01:10.139Z,101302.31
2022-12-05T20:03:36.537Z,101312.16
2022-12-05T20:06:02.908Z,101302.78
2022-12-05T20:08:29.235Z,101309.94
2022-12-05T20:10:55.609Z,101307.97
2022-12-05T20:13:45.988Z,101312.72
2022-12-05T20:16:08.810Z,101311.03
2022-12-05T20:18:37.468Z,101317.69
2022-12-05T20:21:03.968Z,101312.44
2022-12-05T20:23:30.393Z,101313.28
2022-12-05T20:26:00.682Z,101318.41
2022-12-05T20:28:27.025Z,101312.63
2022-12-05T20:30:53.448Z,101316.88
2022-12-05T20:33:19.964Z,101318.28
2022-12-05T20:35:46.284Z,101318.28
2022-12-05T20:38:12.644Z,101313.91
2022-12-05T20:40:38.969Z,101311.78
2022-12-05T20:43:05.311Z,101306.78
2022-12-05T20:45:31.661Z,101304.53
2022-12-05T20:47:58.041Z,101313.91
2022-12-05T20:50:24.367Z,101305.94
2022-12-05T20:52:50.705Z,101317.34
2022-12-05T20:55:17.028Z,101312.34
2022-12-05T20:57:43.368Z,101310.84
2022-12-05T21:00:10.847Z,101303.59
2022-12-05T21:02:37.921Z,101296.34
2022-12-05T21:05:04.303Z,101303.59
2022-12-05T21:07:30.694Z,101297.81
2022-12-05T21:09:57.465Z,101298.56
2022-12-05T21:12:24.924Z,101293.56
2022-12-05T21:14:52.492Z,101300.81
2022-12-05T21:17:18.813Z,101292.78
2022-12-05T21:19:45.689Z,101287.78
2022-12-05T21:22:12.013Z,101292.91
2022-12-05T21:24:38.338Z,101295.03
2022-12-05T21:27:04.647Z,101293.63
2022-12-05T21:29:30.969Z,101290.00
2022-12-05T21:31:57.281Z,101294.31
2022-12-05T21:34:23.615Z,101296.50
2022-12-05T21:36:51.469Z,101292.25
2022-12-05T21:39:17.803Z,101285.00
2022-12-05T21:41:44.138Z,101288.53
2022-12-05T21:44:10.504Z,101296.34
2022-12-05T21:46:36.934Z,101289.81
2022-12-05T21:49:03.363Z,101287.59
2022-12-05T21:51:29.673Z,101288.88
2022-12-05T21:53:55.998Z,101288.88
2022-12-05T21:56:25.505Z,101293.16
2022-12-05T21:58:52.115Z,101293.16
2022-12-05T22:01:22.698Z,101294.56
2022-12-05T22:03:52.666Z,101290.91
2022-12-05T22:06:18.985Z,101300.22
2022-12-05T22:08:45.304Z,101291.47
2022-12-05T22:11:15.191Z,101292.22
2022-12-05T22:13:41.737Z,101291.47
2022-12-05T22:16:08.308Z,101300.13
2022-12-05T22:18:34.902Z,101292.22
2022-12-05T22:21:05.031Z,101289.97
2022-12-05T22:23:31.728Z,101287.00
2022-12-05T22:26:02.001Z,101288.41
2022-12-05T22:28:28.456Z,101282.53
2022-12-05T22:30:55.638Z,101279.66
2022-12-05T22:33:22.199Z,101280.28
2022-12-05T22:35:52.498Z,101270.16
2022-12-05T22:38:18.817Z,101278.06
2022-12-05T22:40:45.217Z,101278.06
2022-12-05T22:43:11.571Z,101272.22
2022-12-05T22:45:37.917Z,101269.31
2022-12-05T22:48:04.324Z,101262.06
2022-12-05T22:50:30.649Z,101257.69
2022-12-05T22:52:56.972Z,101264.88
2022-12-05T22:55:23.293Z,101257.59
2022-12-05T22:57:49.625Z,101264.75
2022-12-05T23:00:16.190Z,101252.44
2022-12-05T23:02:42.571Z,101253.84
2022-12-05T23:05:08.912Z,101254.59
2022-12-05T23:07:35.262Z,101244.47
2022-12-05T23:10:02.015Z,101248.09
2022-12-05T23:12:28.483Z,101251.59
2022-12-05T23:14:54.790Z,101250.13
2022-12-05T23:17:21.129Z,101241.38
2022-12-05T23:19:47.475Z,101241.38
2022-12-05T23:22:13.802Z,101239.25
2022-12-05T23:24:40.108Z,101242.03
2022-12-05T23:27:06.408Z,101238.41
2022-12-05T23:29:32.734Z,101232.66
2022-12-05T23:31:59.120Z,101231.16
2022-12-05T23:34:25.547Z,101228.28
2022-12-05T23:36:51.872Z,101229.66
2022-12-05T23:39:18.184Z,101225.31
2022-12-05T23:41:45.056Z,101226.69
2022-12-05T23:44:11.383Z,101219.44
2022-12-05T23:46:37.818Z,101221.59
2022-12-05T23:49:04.158Z,101219.44
2022-12-05T23:51:30.490Z,101206.41
2022-12-05T23:53:57.641Z,101209.97
2022-12-05T23:56:24.837Z,101215.72
2022-12-05T23:58:51.222Z,101204.94
